Time;durP1;ratioP1;P1;durP2;ratioP2;P2;SDS_P1;SDS_P2;PMS_P1;PMS_P2;Temp;Humidity;BMP_temperature;BMP_pressure;BME280_temperature;BME280_humidity;BME280_pressure;Samples;Min_cycle;Max_cycle;Signal;HPM_P1;HPM_P2
2022/10/09 00:00:21;;;;;;;6.32;4.35;;;;;;;7.61;72.25;101249.63;5049578;28;20060;-55
2022/10/09 00:02:49;;;;;;;4.82;3.53;;;;;;;7.62;72.39;101249.38;5054267;28;20061;-54
2022/10/09 00:05:16;;;;;;;7.55;3.70;;;;;;;7.58;72.76;101252.94;5054860;28;20045;-54
2022/10/09 00:07:43;;;;;;;7.20;3.63;;;;;;;7.59;71.63;101252.69;5054649;28;20053;-55
2022/10/09 00:10:11;;;;;;;4.93;3.63;;;;;;;7.59;72.50;101255.44;5054426;28;20065;-55
2022/10/09 00:12:38;;;;;;;5.13;3.60;;;;;;;7.59;72.11;101261.00;5053228;28;20461;-55
2022/10/09 00:15:07;;;;;;;6.07;3.10;;;;;;;7.59;72.88;101265.72;5054200;28;20056;-55
2022/10/09 00:17:35;;;;;;;5.38;3.10;;;;;;;7.59;71.23;101266.53;5063294;28;20055;-54
2022/10/09 00:20:02;;;;;;;4.55;2.95;;;;;;;7.59;71.17;101266.53;5062375;28;20049;-57
2022/10/09 00:22:31;;;;;;;6.00;3.60;;;;;;;7.57;72.11;101268.75;5055183;28;20444;-56
2022/10/09 00:25:01;;;;;;;6.78;3.40;;;;;;;7.53;71.31;101273.19;5053974;28;20051;-55
2022/10/09 00:27:28;;;;;;;6.20;3.53;;;;;;;7.52;71.37;101269.59;5051458;28;20136;-56
2022/10/09 00:29:59;;;;;;;5.30;3.03;;;;;;;7.47;71.40;101274.28;5052985;28;20060;-54
2022/10/09 00:32:27;;;;;;;9.48;3.67;;;;;;;7.46;72.49;101272.63;5060679;28;20051;-54
2022/10/09 00:34:55;;;;;;;5.72;3.58;;;;;;;7.44;71.82;101274.84;5054010;28;20063;-55
2022/10/09 00:37:22;;;;;;;7.15;3.53;;;;;;;7.44;71.83;101272.06;5054455;28;20059;-56
2022/10/09 00:39:49;;;;;;;5.45;3.70;;;;;;;7.44;72.90;101278.44;5053663;28;20382;-54
2022/10/09 00:42:16;;;;;;;4.63;3.00;;;;;;;7.42;72.10;101274.28;5053238;28;20072;-55
2022/10/09 00:44:53;;;;;;;4.70;3.13;;;;;;;7.42;73.00;101277.88;5054122;28;20490;-55
2022/10/09 00:47:31;;;;;;;5.75;3.70;;;;;;;7.35;71.67;101276.47;5054054;28;20083;-56
2022/10/09 00:50:03;;;;;;;8.02;4.53;;;;;;;7.34;72.29;101275.63;5054338;28;20052;-54
2022/10/09 00:52:32;;;;;;;4.80;2.80;;;;;;;7.33;71.97;101285.06;5053742;28;20421;-56
2022/10/09 00:55:02;;;;;;;5.10;3.15;;;;;;;7.36;71.71;101278.13;5050579;28;20409;-54
2022/10/09 00:57:33;;;;;;;4.00;3.08;;;;;;;7.36;71.60;101283.69;5053944;28;20063;-56
2022/10/09 01:00:05;;;;;;;6.20;3.25;;;;;;;7.32;72.59;101273.13;5053900;28;20405;-53
2022/10/09 01:02:34;;;;;;;5.47;3.25;;;;;;;7.32;72.05;101277.84;5053461;28;20056;-54
2022/10/09 01:05:01;;;;;;;5.50;3.03;;;;;;;7.28;72.24;101276.72;5053803;28;20056;-54
2022/10/09 01:07:39;;;;;;;6.55;3.08;;;;;;;7.26;72.60;101274.22;5053792;28;20386;-55
2022/10/09 01:10:17;;;;;;;4.15;2.97;;;;;;;7.24;72.56;101272.81;5053334;28;20056;-56
2022/10/09 01:12:52;;;;;;;6.60;2.90;;;;;;;7.22;72.12;101273.09;5043330;28;20387;-51
2022/10/09 01:15:24;;;;;;;4.68;2.78;;;;;;;7.20;72.00;101280.03;5032984;28;20060;-53
2022/10/09 01:18:00;;;;;;;4.90;2.80;;;;;;;7.14;72.15;101272.78;5033631;28;20057;-53
2022/10/09 01:20:34;;;;;;;5.13;3.08;;;;;;;7.13;72.37;101269.19;5033639;28;20418;-54
2022/10/09 01:23:42;;;;;;;7.43;3.58;;;;;;;7.10;71.92;101264.22;5037037;28;20068;-54
2022/10/09 01:26:23;;;;;;;6.97;3.25;;;;;;;7.07;71.14;101261.97;4991074;28;20478;-54
2022/10/09 01:28:56;;;;;;;6.78;2.95;;;;;;;7.04;71.26;101259.75;4991373;28;20054;-53
2022/10/09 01:31:29;;;;;;;6.07;3.55;;;;;;;6.98;71.47;101271.91;5029985;28;20413;-53
2022/10/09 01:33:59;;;;;;;4.40;2.92;;;;;;;6.97;71.63;101261.94;5053081;28;20060;-55
2022/10/09 01:36:28;;;;;;;5.18;3.25;;;;;;;6.91;72.07;101261.09;5051679;28;20047;-54
2022/10/09 01:38:58;;;;;;;5.72;3.05;;;;;;;6.88;72.61;101259.66;5053246;28;20362;-53
2022/10/09 01:41:26;;;;;;;3.88;3.10;;;;;;;6.87;72.14;101258.03;5053135;28;20401;-52
2022/10/09 01:43:55;;;;;;;4.88;3.10;;;;;;;6.87;71.65;101259.97;5052875;28;20060;-54
2022/10/09 01:46:24;;;;;;;4.72;2.85;;;;;;;6.86;71.85;101258.28;5052788;28;20056;-54
2022/10/09 01:49:02;;;;;;;4.88;3.15;;;;;;;6.85;72.14;101254.69;5062567;28;20492;-55
2022/10/09 01:51:38;;;;;;;6.90;3.50;;;;;;;6.83;72.03;101258.84;5049258;28;20049;-56
2022/10/09 01:54:09;;;;;;;5.13;3.38;;;;;;;6.76;72.12;101252.69;5052916;28;20057;-56
2022/10/09 01:56:39;;;;;;;5.95;3.10;;;;;;;6.77;72.14;101255.22;5052327;28;20045;-56
2022/10/09 01:59:13;;;;;;;5.10;3.13;;;;;;;6.74;72.02;101249.38;5052347;28;20528;-56
2022/10/09 02:01:42;;;;;;;6.03;3.10;;;;;;;6.68;72.24;101245.75;5052384;28;20063;-55
2022/10/09 02:04:14;;;;;;;5.07;3.00;;;;;;;6.65;71.43;101246.28;5051139;28;20076;-53
2022/10/09 02:06:43;;;;;;;5.22;3.25;;;;;;;6.56;71.35;101239.59;5051035;28;20049;-52
2022/10/09 02:09:15;;;;;;;4.57;2.83;;;;;;;6.54;71.85;101241.81;5052337;28;20056;-55
2022/10/09 02:11:46;;;;;;;7.50;3.33;;;;;;;6.52;71.60;101236.53;5050277;28;20052;-55
2022/10/09 02:14:15;;;;;;;5.43;3.05;;;;;;;6.54;71.54;101239.84;5032382;28;20053;-53
2022/10/09 02:16:46;;;;;;;6.15;2.95;;;;;;;6.55;71.40;101235.16;5032365;28;20413;-55
2022/10/09 02:19:17;;;;;;;7.78;3.22;;;;;;;6.52;72.00;101238.47;5032136;28;20076;-55
2022/10/09 02:21:47;;;;;;;6.65;3.50;;;;;;;6.50;71.48;101239.56;5051984;28;20064;-55
2022/10/09 02:24:19;;;;;;;5.40;2.90;;;;;;;6.46;71.76;101238.44;5051834;28;20354;-54
2022/10/09 02:26:46;;;;;;;4.15;2.83;;;;;;;6.48;71.29;101236.22;5051918;28;20477;-54
2022/10/09 02:29:15;;;;;;;4.78;3.30;;;;;;;6.45;71.49;101230.41;5052225;28;20060;-54
2022/10/09 02:31:43;;;;;;;7.20;3.50;;;;;;;6.39;71.14;101232.31;5053062;28;20055;-55
2022/10/09 02:34:14;;;;;;;6.22;3.60;;;;;;;6.32;71.89;101231.72;5055234;28;20053;-55
2022/10/09 02:36:41;;;;;;;6.70;3.67;;;;;;;6.32;72.10;101231.72;5051733;28;20049;-55
2022/10/09 02:39:09;;;;;;;7.88;3.30;;;;;;;6.36;71.87;101232.81;5052037;28;20405;-53
2022/10/09 02:41:36;;;;;;;4.60;3.10;;;;;;;6.35;71.78;101220.09;5052192;28;20045;-54
2022/10/09 02:44:04;;;;;;;6.03;3.10;;;;;;;6.33;71.84;101221.47;5052531;28;20056;-56
2022/10/09 02:46:33;;;;;;;5.63;3.30;;;;;;;6.32;71.83;101225.34;5052116;28;20409;-55
2022/10/09 02:49:01;;;;;;;8.48;3.35;;;;;;;6.25;71.44;101231.09;5055338;28;20053;-55
2022/10/09 02:51:28;;;;;;;5.35;3.05;;;;;;;6.25;72.03;101231.94;5051769;28;20057;-56
2022/10/09 02:53:58;;;;;;;6.20;3.53;;;;;;;6.24;71.39;101227.50;5051844;28;20053;-53
2022/10/09 02:56:26;;;;;;;5.50;3.50;;;;;;;6.21;71.87;101224.44;5051881;28;20060;-56
2022/10/09 02:58:53;;;;;;;5.65;4.00;;;;;;;6.20;71.85;101223.63;5052220;28;20045;-56
2022/10/09 03:01:21;;;;;;;8.02;3.70;;;;;;;6.19;72.07;101224.69;5051811;28;20095;-55
2022/10/09 03:03:50;;;;;;;5.07;3.85;;;;;;;6.16;72.28;101232.72;5050396;28;20049;-55
2022/10/09 03:06:21;;;;;;;5.47;3.13;;;;;;;6.12;71.74;101218.56;5049424;28;20048;-55
2022/10/09 03:08:50;;;;;;;5.53;3.65;;;;;;;6.09;72.02;101228.25;5051909;28;20398;-54
2022/10/09 03:11:18;;;;;;;7.25;3.40;;;;;;;6.09;72.42;101225.47;5051713;28;20049;-53
2022/10/09 03:13:46;;;;;;;5.68;3.65;;;;;;;6.12;72.39;101224.09;5033068;28;20423;-56
2022/10/09 03:16:15;;;;;;;6.45;3.88;;;;;;;6.08;72.35;101221.03;5031573;28;20504;-55
2022/10/09 03:18:43;;;;;;;5.85;3.95;;;;;;;6.07;72.68;101219.38;5044371;28;20057;-55
2022/10/09 03:21:14;;;;;;;8.43;3.80;;;;;;;6.06;72.54;101214.09;5049911;28;20045;-56
2022/10/09 03:23:42;;;;;;;5.28;3.30;;;;;;;6.01;71.64;101219.63;5051207;28;20053;-55
2022/10/09 03:26:11;;;;;;;6.07;3.95;;;;;;;5.98;72.00;101217.38;5051392;28;20057;-54
2022/10/09 03:28:40;;;;;;;4.97;2.90;;;;;;;5.94;72.20;101222.56;5051286;28;20540;-55
2022/10/09 03:31:08;;;;;;;6.55;3.65;;;;;;;6.00;71.72;101220.69;5051338;28;20064;-55
2022/10/09 03:33:36;;;;;;;5.65;3.30;;;;;;;5.99;72.13;101232.88;5048408;28;20440;-54
2022/10/09 03:36:05;;;;;;;7.63;3.30;;;;;;;6.00;71.94;101218.75;5051470;28;20075;-54
2022/10/09 03:38:33;;;;;;;8.48;3.25;;;;;;;5.99;71.75;101222.66;5053085;28;20048;-55
2022/10/09 03:41:02;;;;;;;4.22;3.20;;;;;;;5.90;71.88;101226.97;5054962;28;20057;-55
2022/10/09 03:43:30;;;;;;;4.63;3.33;;;;;;;5.89;71.85;101228.06;5054827;28;20063;-55
2022/10/09 03:45:57;;;;;;;5.78;3.55;;;;;;;5.84;71.64;101223.31;5054938;28;20060;-54
2022/10/09 03:48:25;;;;;;;6.88;3.58;;;;;;;5.82;71.76;101219.16;5051254;28;20053;-55
2022/10/09 03:50:52;;;;;;;6.85;3.53;;;;;;;5.85;71.55;101221.38;5053136;28;20053;-52
2022/10/09 03:53:19;;;;;;;6.45;3.58;;;;;;;5.79;71.63;101222.44;5035150;28;20406;-55
2022/10/09 03:55:48;;;;;;;5.28;3.75;;;;;;;5.73;71.81;101226.25;5034569;28;20064;-54
2022/10/09 03:58:15;;;;;;;10.45;4.32;;;;;;;5.64;71.84;101225.91;5034813;28;20045;-53
2022/10/09 04:00:45;;;;;;;5.85;3.80;;;;;;;5.65;71.67;101222.91;5040999;28;20053;-55
2022/10/09 04:03:12;;;;;;;;;;;;;;;5.67;71.56;101220.69;5055278;28;20513;-55
2022/10/09 04:05:39;;;;;;;6.72;3.63;;;;;;;5.64;71.58;101229.50;5054496;28;19920;-56
2022/10/09 04:08:06;;;;;;;4.75;3.72;;;;;;;5.61;72.14;101226.44;5054471;28;20477;-54
2022/10/09 04:10:34;;;;;;;5.30;3.83;;;;;;;5.63;71.82;101219.56;5054713;28;20053;-54
2022/10/09 04:13:02;;;;;;;5.80;3.42;;;;;;;5.66;71.83;101230.06;5041925;28;20053;-54
2022/10/09 04:15:29;;;;;;;6.72;3.13;;;;;;;5.63;71.79;101222.31;5040386;28;20480;-55
2022/10/09 04:17:57;;;;;;;8.48;3.80;;;;;;;5.59;71.72;101223.94;5054441;28;20049;-55
2022/10/09 04:20:24;;;;;;;4.90;3.40;;;;;;;5.54;71.74;101225.81;5054370;28;20067;-55
2022/10/09 04:22:52;;;;;;;4.63;3.45;;;;;;;5.51;71.71;101221.66;5054008;28;20080;-55
2022/10/09 04:25:20;;;;;;;4.40;3.45;;;;;;;5.49;71.74;101219.16;5054541;28;20048;-55
2022/10/09 04:27:47;;;;;;;5.40;3.17;;;;;;;5.48;71.68;101219.41;5054366;28;20052;-55
2022/10/09 04:30:16;;;;;;;6.63;3.65;;;;;;;5.47;70.94;101213.03;5052797;28;20498;-55
2022/10/09 04:32:43;;;;;;;6.03;3.83;;;;;;;5.46;71.48;101218.84;5054336;28;20053;-54
2022/10/09 04:35:12;;;;;;;6.97;4.13;;;;;;;5.45;71.48;101218.00;5054480;28;20381;-56
2022/10/09 04:37:42;;;;;;;6.07;3.58;;;;;;;5.44;71.59;101207.22;5054081;28;20049;-55
2022/10/09 04:40:09;;;;;;;;;;;;;;;5.40;72.05;101217.13;5054467;28;20497;-55
2022/10/09 04:42:37;;;;;;;6.05;3.45;;;;;;;5.37;71.96;101214.88;5053921;28;19921;-55
2022/10/09 04:45:05;;;;;;;7.38;3.70;;;;;;;5.35;71.71;101217.91;5049413;28;20053;-54
2022/10/09 04:47:35;;;;;;;5.57;3.95;;;;;;;5.35;71.85;101214.31;5053584;28;20045;-55
2022/10/09 04:50:02;;;;;;;7.50;3.78;;;;;;;5.26;71.74;101214.78;5053790;28;20053;-56
2022/10/09 04:52:29;;;;;;;5.32;3.53;;;;;;;5.26;71.61;101205.66;5053870;28;20057;-56
2022/10/09 04:54:57;;;;;;;6.28;3.72;;;;;;;5.25;71.83;101215.88;5053543;28;20056;-53
2022/10/09 04:57:24;;;;;;;5.00;3.60;;;;;;;5.25;72.20;101212.28;5056474;28;20078;-52
2022/10/09 04:59:51;;;;;;;6.80;3.47;;;;;;;5.21;72.08;101211.97;5054228;28;20481;-55
2022/10/09 05:02:21;;;;;;;4.18;3.35;;;;;;;5.21;71.57;101203.69;5053568;28;20061;-54
2022/10/09 05:04:49;;;;;;;4.28;3.15;;;;;;;5.25;71.74;101204.84;5053542;28;20057;-55
2022/10/09 05:07:17;;;;;;;5.82;3.50;;;;;;;5.23;71.07;101204.25;5053475;28;20053;-53
2022/10/09 05:09:44;;;;;;;6.88;3.60;;;;;;;5.21;71.66;101200.94;5053792;28;20400;-53
2022/10/09 05:12:13;;;;;;;5.80;3.90;;;;;;;5.15;71.58;101201.16;5050823;28;20068;-54
2022/10/09 05:14:41;;;;;;;8.50;4.55;;;;;;;5.16;71.35;101209.16;5053179;28;20059;-54
2022/10/09 05:17:08;;;;;;;7.30;4.82;;;;;;;5.17;71.44;101202.53;5053045;28;20056;-55
2022/10/09 05:19:35;;;;;;;9.25;4.70;;;;;;;5.20;71.66;101198.41;5053241;28;20412;-55
2022/10/09 05:22:04;;;;;;;10.45;5.43;;;;;;;5.15;72.02;101195.63;5053165;28;20068;-54
2022/10/09 05:24:31;;;;;;;8.07;4.40;;;;;;;5.17;72.45;101198.97;5053130;28;20056;-54
2022/10/09 05:26:58;;;;;;;8.52;4.63;;;;;;;5.16;71.82;101205.56;5048084;28;20060;-54
2022/10/09 05:29:25;;;;;;;8.25;4.32;;;;;;;5.19;71.85;101205.88;5052131;28;20052;-55
2022/10/09 05:31:55;;;;;;;6.80;4.07;;;;;;;5.19;72.01;101208.63;5052759;28;20057;-54
2022/10/09 05:34:23;;;;;;;6.32;3.70;;;;;;;5.21;72.10;101197.34;5052785;28;20409;-53
2022/10/09 05:36:51;;;;;;;5.43;3.33;;;;;;;5.20;71.91;101206.72;5052894;28;20053;-54
2022/10/09 05:39:19;;;;;;;5.53;3.17;;;;;;;5.20;71.95;101199.25;5053203;28;20048;-52
2022/10/09 05:41:46;;;;;;;9.23;3.92;;;;;;;5.20;71.84;101206.72;5051617;28;20053;-54
2022/10/09 05:44:14;;;;;;;6.60;3.53;;;;;;;5.20;71.50;101201.19;5052689;28;20053;-53
2022/10/09 05:46:41;;;;;;;8.95;4.50;;;;;;;5.20;72.05;101206.72;5052859;28;20052;-53
2022/10/09 05:49:10;;;;;;;6.70;4.03;;;;;;;5.21;71.44;101209.22;5052963;28;20060;-53
2022/10/09 05:51:41;;;;;;;9.63;4.85;;;;;;;5.18;71.20;101206.97;5052498;28;20528;-54
2022/10/09 05:54:14;;;;;;;8.93;4.82;;;;;;;5.24;71.76;101202.31;5052767;28;20053;-53
2022/10/09 05:56:43;;;;;;;11.73;5.47;;;;;;;5.28;71.85;101197.94;5049123;28;20413;-53
2022/10/09 05:59:13;;;;;;;9.52;4.88;;;;;;;5.36;71.59;101199.41;5052193;28;20481;-54
2022/10/09 06:01:47;;;;;;;8.35;4.35;;;;;;;5.40;71.52;101204.16;5051973;28;20084;-53
2022/10/09 06:04:16;;;;;;;8.45;5.13;;;;;;;5.50;71.52;101203.38;5056170;28;20063;-55
2022/10/09 06:06:46;;;;;;;10.90;6.10;;;;;;;5.57;71.54;101209.56;5045218;28;20454;-55
2022/10/09 06:09:14;;;;;;;14.60;5.65;;;;;;;5.65;71.37;101202.72;5032135;28;20042;-55
2022/10/09 06:11:42;;;;;;;36.28;12.60;;;;;;;5.66;71.31;101196.09;5039551;28;20053;-55
2022/10/09 06:14:12;;;;;;;14.07;6.45;;;;;;;5.77;72.14;101199.75;5052583;28;20048;-54
2022/10/09 06:16:41;;;;;;;11.85;6.43;;;;;;;5.97;72.03;101205.47;5052122;28;20057;-55
2022/10/09 06:19:11;;;;;;;17.08;5.63;;;;;;;6.15;71.37;101203.38;5046188;28;20046;-54
2022/10/09 06:21:39;;;;;;;20.63;5.78;;;;;;;6.29;71.34;101201.81;5048204;28;20053;-55
2022/10/09 06:24:07;;;;;;;7.50;4.45;;;;;;;6.48;70.98;101197.47;5052305;28;20049;-54
2022/10/09 06:26:34;;;;;;;33.80;5.80;;;;;;;6.68;70.35;101198.69;5052461;28;20433;-56
2022/10/09 06:29:03;;;;;;;32.78;6.38;;;;;;;6.98;68.46;101192.41;5049761;28;20053;-54
2022/10/09 06:31:35;;;;;;;14.25;4.75;;;;;;;7.39;67.61;101199.97;5035208;28;20064;-54
2022/10/09 06:34:03;;;;;;;5.43;4.00;;;;;;;7.72;66.69;101198.63;5049282;28;20056;-53
2022/10/09 06:36:34;;;;;;;4.97;4.38;;;;;;;7.99;65.42;101208.59;5048558;28;20067;-53
2022/10/09 06:39:03;;;;;;;5.38;4.07;;;;;;;8.29;64.10;101202.16;5051949;28;20409;-53
2022/10/09 06:41:31;;;;;;;7.32;4.30;;;;;;;8.67;63.15;101199.84;5049570;28;20053;-54
2022/10/09 06:44:00;;;;;;;7.50;4.15;;;;;;;9.23;62.39;101199.56;5041044;28;20048;-54
2022/10/09 06:46:30;;;;;;;5.63;4.72;;;;;;;9.65;60.47;101200.94;5045809;28;20061;-55
2022/10/09 06:48:58;;;;;;;7.70;5.00;;;;;;;9.95;59.29;101208.22;5037115;28;20068;-54
2022/10/09 06:51:27;;;;;;;5.38;4.45;;;;;;;10.46;58.24;101204.09;5049017;28;20060;-54
2022/10/09 06:53:57;;;;;;;7.35;3.80;;;;;;;11.48;56.00;101198.28;5051736;28;20063;-55
2022/10/09 06:56:26;;;;;;;5.85;4.25;;;;;;;12.64;52.62;101198.47;5049525;28;20056;-54
2022/10/09 06:58:54;;;;;;;5.82;4.00;;;;;;;13.35;51.24;101199.75;5049377;28;20060;-54
2022/10/09 07:01:23;;;;;;;6.13;3.75;;;;;;;14.24;47.59;101199.22;5068130;28;20372;-53
2022/10/09 07:03:57;;;;;;;6.35;4.47;;;;;;;14.96;46.01;101198.88;5068233;28;20515;-53
2022/10/09 07:06:26;;;;;;;6.38;4.45;;;;;;;15.60;45.12;101197.47;5041210;28;20053;-54
2022/10/09 07:08:56;;;;;;;5.20;3.63;;;;;;;16.28;43.31;101196.91;5049272;28;20052;-54
2022/10/09 07:11:26;;;;;;;5.68;4.03;;;;;;;16.86;41.52;101200.97;5047567;28;20049;-52
2022/10/09 07:13:55;;;;;;;5.65;4.35;;;;;;;17.78;40.33;101202.94;5052114;28;20064;-55
2022/10/09 07:16:24;;;;;;;7.03;3.63;;;;;;;18.38;39.51;101197.06;5055491;28;20052;-53
2022/10/09 07:18:52;;;;;;;5.53;3.95;;;;;;;19.38;37.31;101196.69;5055557;28;20048;-55
2022/10/09 07:21:22;;;;;;;4.50;3.58;;;;;;;20.17;36.01;101191.31;5053869;28;20517;-55
2022/10/09 07:23:49;;;;;;;4.18;3.67;;;;;;;20.97;34.74;101182.88;5053601;28;20048;-55
2022/10/09 07:26:19;;;;;;;5.68;3.67;;;;;;;21.94;32.87;101182.16;5055231;28;20060;-56
2022/10/09 07:28:47;;;;;;;4.28;3.85;;;;;;;22.50;31.71;101179.56;5055387;28;20417;-56
2022/10/09 07:31:15;;;;;;;5.57;3.67;;;;;;;23.12;30.92;101181.44;5054949;28;20067;-54
2022/10/09 07:33:42;;;;;;;5.00;4.13;;;;;;;23.73;29.39;101172.88;5055242;28;20061;-56
2022/10/09 07:36:10;;;;;;;6.15;3.88;;;;;;;24.15;28.97;101169.75;5050769;28;20068;-56
2022/10/09 07:38:40;;;;;;;5.53;4.55;;;;;;;24.56;28.17;101168.91;5053229;28;20060;-56
2022/10/09 07:41:07;;;;;;;;;;;;;;;24.67;27.21;101166.97;5065220;28;20416;-56
2022/10/09 07:43:35;;;;;;;7.95;4.60;;;;;;;25.39;26.73;101165.47;5043631;28;19921;-56
2022/10/09 07:46:04;;;;;;;10.68;9.60;;;;;;;25.91;26.17;101165.25;5054264;28;20053;-57
2022/10/09 07:48:33;;;;;;;29.20;26.13;;;;;;;26.34;25.49;101168.22;5050805;28;20045;-56
2022/10/09 07:51:07;;;;;;;16.65;14.68;;;;;;;26.78;24.83;101169.09;5056757;28;20057;-55
2022/10/09 07:53:35;;;;;;;5.30;4.38;;;;;;;27.11;24.92;101176.41;5071468;28;20056;-56
2022/10/09 07:56:04;;;;;;;5.97;4.20;;;;;;;27.65;24.52;101170.50;5051293;28;20044;-56
2022/10/09 07:58:32;;;;;;;3.95;3.38;;;;;;;27.94;23.98;101174.91;5051534;28;20425;-56
2022/10/09 08:01:04;;;;;;;3.83;3.00;;;;;;;28.44;23.31;101167.22;5050957;28;20060;-54
2022/10/09 08:03:32;;;;;;;4.65;3.47;;;;;;;28.94;23.05;101166.81;5053649;28;20490;-56
2022/10/09 08:05:59;;;;;;;3.47;3.17;;;;;;;29.39;22.25;101163.06;5066156;28;20048;-57
2022/10/09 08:08:26;;;;;;;4.63;3.88;;;;;;;29.90;21.52;101159.16;5057899;28;20049;-56
2022/10/09 08:10:54;;;;;;;5.18;4.05;;;;;;;30.28;21.14;101153.28;5050159;28;20429;-56
2022/10/09 08:13:23;;;;;;;4.25;3.65;;;;;;;30.64;21.71;101149.00;5045120;28;20520;-55
2022/10/09 08:15:50;;;;;;;4.60;4.13;;;;;;;31.13;20.72;101155.94;5048081;28;20417;-57
2022/10/09 08:18:17;;;;;;;4.72;4.07;;;;;;;31.69;20.48;101149.47;5042997;28;20060;-56
2022/10/09 08:20:44;;;;;;;4.65;4.15;;;;;;;32.14;19.82;101148.06;5056092;28;20061;-55
2022/10/09 08:23:12;;;;;;;4.28;3.78;;;;;;;32.58;19.45;101151.56;5072709;28;20052;-56
2022/10/09 08:25:39;;;;;;;4.00;3.65;;;;;;;33.04;19.14;101142.94;5060824;28;20401;-56
2022/10/09 08:28:06;;;;;;;4.15;3.55;;;;;;;33.25;18.91;101145.25;5056983;28;20060;-56
2022/10/09 08:30:35;;;;;;;4.28;3.88;;;;;;;33.61;18.74;101132.66;5048347;28;20068;-56
2022/10/09 08:33:02;;;;;;;;;;;;;;;33.56;18.62;101134.00;5054380;28;20080;-56
2022/10/09 08:35:29;;;;;;;4.68;3.97;;;;;;;34.14;18.53;101130.19;5052621;28;19928;-55
2022/10/09 08:37:56;;;;;;;4.10;3.40;;;;;;;34.64;18.67;101133.50;5061779;28;20060;-54
2022/10/09 08:40:32;;;;;;;6.50;4.63;;;;;;;34.49;18.53;101136.06;5057922;28;20053;-55
2022/10/09 08:43:04;;;;;;;5.13;3.60;;;;;;;34.75;18.40;101131.06;5053144;28;20049;-55
2022/10/09 08:45:33;;;;;;;4.47;3.53;;;;;;;34.97;18.24;101133.19;5061768;28;20068;-55
2022/10/09 08:48:06;;;;;;;3.30;2.75;;;;;;;34.96;18.64;101135.28;5056300;28;20060;-54
2022/10/09 08:50:36;;;;;;;3.90;3.05;;;;;;;35.47;17.97;101122.66;5059242;28;20416;-55
2022/10/09 08:53:12;;;;;;;5.10;3.58;;;;;;;35.70;17.54;101127.19;5070736;28;20052;-56
2022/10/09 08:55:43;;;;;;;4.18;2.63;;;;;;;36.00;18.29;101118.16;5060891;28;20059;-55
2022/10/09 08:58:15;;;;;;;4.97;3.03;;;;;;;36.35;17.96;101122.50;5056565;28;20053;-54
2022/10/09 09:00:45;;;;;;;4.35;3.20;;;;;;;36.37;17.47;101122.00;5058424;28;20052;-55
2022/10/09 09:03:37;;;;;;;4.75;3.70;;;;;;;36.51;18.13;101117.69;5068926;28;20484;-55
2022/10/09 09:06:12;;;;;;;5.47;3.28;;;;;;;36.67;17.87;101119.53;5054293;28;20049;-55
2022/10/09 09:08:48;;;;;;;3.90;3.05;;;;;;;37.04;17.40;101097.09;5064771;28;20477;-56
2022/10/09 09:11:25;;;;;;;3.67;2.85;;;;;;;37.33;17.04;101104.53;5065106;28;20480;-55
2022/10/09 09:14:02;;;;;;;3.88;2.97;;;;;;;37.73;17.02;101100.59;5049817;28;20056;-55
2022/10/09 09:16:40;;;;;;;4.72;3.60;;;;;;;38.13;16.71;101090.75;5053339;28;20053;-56
2022/10/09 09:19:23;;;;;;;2.97;2.10;;;;;;;38.52;16.23;101087.97;5052950;28;20144;-55
2022/10/09 09:21:52;;;;;;;4.32;2.13;;;;;;;38.70;15.57;101084.91;5064529;28;20067;-55
2022/10/09 09:24:21;;;;;;;5.47;2.38;;;;;;;37.86;16.32;101089.53;5050336;28;20056;-56
2022/10/09 09:26:53;;;;;;;3.15;1.67;;;;;;;37.83;16.43;101086.81;5043767;28;20064;-55
2022/10/09 09:29:23;;;;;;;3.58;1.63;;;;;;;36.05;16.94;101080.63;5056206;28;20061;-55
2022/10/09 09:31:54;;;;;;;3.95;1.70;;;;;;;36.42;17.05;101086.56;5062355;28;20063;-54
2022/10/09 09:34:28;;;;;;;5.30;2.03;;;;;;;35.65;17.45;101084.31;5054268;28;20060;-55
2022/10/09 09:36:58;;;;;;;4.47;1.70;;;;;;;35.08;17.62;101075.69;5059359;28;20489;-55
2022/10/09 09:39:28;;;;;;;5.22;1.75;;;;;;;34.52;18.13;101077.28;5064023;28;20049;-55
2022/10/09 09:42:00;;;;;;;4.50;2.00;;;;;;;34.00;18.85;101072.00;5061285;28;20053;-57
2022/10/09 09:44:30;;;;;;;4.05;1.83;;;;;;;34.35;18.49;101072.91;5050061;28;20060;-55
2022/10/09 09:46:57;;;;;;;4.43;1.60;;;;;;;32.99;19.57;101075.03;5067133;28;20060;-56
2022/10/09 09:49:28;;;;;;;4.05;1.60;;;;;;;32.65;19.70;101069.78;5068413;28;20056;-56
2022/10/09 09:51:57;;;;;;;3.13;1.40;;;;;;;31.86;20.52;101069.66;5068556;28;20052;-56
2022/10/09 09:54:26;;;;;;;7.72;1.83;;;;;;;31.39;20.82;101058.34;5056494;28;20052;-55
2022/10/09 09:56:57;;;;;;;4.18;1.70;;;;;;;30.94;20.86;101073.28;5072807;28;20056;-55
2022/10/09 09:59:33;;;;;;;3.03;1.60;;;;;;;30.59;21.75;101052.53;5054731;28;20057;-56
2022/10/09 10:02:04;;;;;;;5.60;2.03;;;;;;;30.51;22.07;101051.06;5050751;28;20421;-55
2022/10/09 10:04:32;;;;;;;4.10;1.50;;;;;;;30.71;21.95;101051.91;5064773;28;20049;-55
2022/10/09 10:07:15;;;;;;;5.05;2.10;;;;;;;30.12;21.91;101043.91;5060735;28;20054;-54
2022/10/09 10:09:42;;;;;;;3.55;1.55;;;;;;;30.53;22.19;101040.75;5050974;28;20064;-55
2022/10/09 10:12:21;;;;;;;4.85;2.20;;;;;;;30.47;21.37;101033.06;5051527;28;20061;-56
2022/10/09 10:14:50;;;;;;;4.70;1.52;;;;;;;29.47;23.29;101044.88;5054792;28;20056;-56
2022/10/09 10:17:28;;;;;;;4.32;1.70;;;;;;;29.49;23.09;101036.63;5051399;28;20052;-56
2022/10/09 10:19:57;;;;;;;4.88;1.85;;;;;;;30.45;23.40;101033.50;5052699;28;20497;-57
2022/10/09 10:22:25;;;;;;;;;;;;;;;29.48;23.13;101034.19;5038574;28;20049;-56
2022/10/09 10:24:56;;;;;;;3.33;1.70;;;;;;;30.15;22.21;101022.91;5031877;28;20253;-56
2022/10/09 10:27:28;;;;;;;4.10;1.70;;;;;;;30.49;22.08;101024.81;5033347;28;20058;-57
2022/10/09 10:29:59;;;;;;;2.88;1.58;;;;;;;31.57;21.98;101020.56;5051977;28;20053;-57
2022/10/09 10:32:31;;;;;;;3.53;1.30;;;;;;;31.83;20.99;101018.69;5052031;28;20048;-57
2022/10/09 10:35:03;;;;;;;3.50;1.52;;;;;;;31.81;20.81;101009.69;5050668;28;20059;-56
2022/10/09 10:37:39;;;;;;;3.03;1.40;;;;;;;31.84;20.65;101000.16;5051973;28;20057;-57
2022/10/09 10:40:16;;;;;;;3.70;1.40;;;;;;;31.00;21.51;101011.09;5052085;28;20057;-57
2022/10/09 10:42:51;;;;;;;3.95;1.50;;;;;;;29.62;22.42;100993.78;5052281;28;20063;-57
2022/10/09 10:45:22;;;;;;;4.38;1.90;;;;;;;28.71;23.43;100993.34;5048787;28;20413;-56
2022/10/09 10:47:53;;;;;;;3.05;1.35;;;;;;;30.35;22.58;101000.03;5054559;28;20049;-56
2022/10/09 10:50:27;;;;;;;3.53;1.33;;;;;;;30.94;21.44;100990.66;5056424;28;20059;-57
2022/10/09 10:53:03;;;;;;;3.78;1.40;;;;;;;31.13;20.65;100977.50;5056358;28;20053;-57
2022/10/09 10:55:42;;;;;;;4.13;1.75;;;;;;;31.01;21.40;100986.81;5056281;28;20393;-57
2022/10/09 10:58:22;;;;;;;3.08;1.55;;;;;;;31.58;20.68;100981.03;5054779;28;20049;-57
2022/10/09 11:00:58;;;;;;;3.88;1.60;;;;;;;32.20;20.39;100981.97;5055670;28;20060;-57
2022/10/09 11:03:42;;;;;;;2.70;1.10;;;;;;;31.55;20.25;100977.00;5055854;28;20425;-56
2022/10/09 11:06:16;;;;;;;3.60;1.45;;;;;;;32.10;19.48;100962.88;5055940;28;20131;-56
2022/10/09 11:08:57;;;;;;;2.17;1.27;;;;;;;32.13;19.54;100962.00;5055929;28;20045;-57
2022/10/09 11:11:32;;;;;;;5.68;1.65;;;;;;;32.79;19.21;100958.94;5055868;28;20381;-59
2022/10/09 11:14:12;;;;;;;2.75;1.38;;;;;;;32.82;18.72;100946.47;5050520;28;20393;-57
2022/10/09 11:16:51;;;;;;;2.75;1.42;;;;;;;32.08;19.90;100959.66;5055603;28;20056;-56
2022/10/09 11:19:38;;;;;;;3.95;1.52;;;;;;;32.25;19.13;100955.47;5055482;28;20056;-57
2022/10/09 11:22:23;;;;;;;3.15;1.30;;;;;;;32.30;19.02;100946.28;5055654;28;20049;-56
2022/10/09 11:25:03;;;;;;;2.83;1.25;;;;;;;32.47;19.06;100931.81;5055180;28;20425;-57
2022/10/09 11:27:38;;;;;;;3.17;1.50;;;;;;;33.68;17.65;100927.31;5052995;28;20061;-57
2022/10/09 11:30:10;;;;;;;3.03;1.10;;;;;;;33.82;18.08;100919.44;5053392;28;20473;-57
2022/10/09 11:32:46;;;;;;;2.85;1.40;;;;;;;33.28;18.08;100929.84;5053814;28;20056;-57
2022/10/09 11:35:20;;;;;;;3.47;1.42;;;;;;;32.84;18.36;100915.91;5055366;28;20056;-56
2022/10/09 11:37:57;;;;;;;2.55;1.40;;;;;;;32.58;18.22;100911.34;5055360;28;20053;-56
2022/10/09 11:40:29;;;;;;;2.67;1.10;;;;;;;31.63;19.30;100925.81;5055292;28;20052;-56
2022/10/09 11:43:03;;;;;;;3.22;1.38;;;;;;;30.88;19.84;100916.84;5052108;28;20057;-56
2022/10/09 11:45:37;;;;;;;3.63;1.67;;;;;;;31.42;19.14;100913.53;5046734;28;20508;-56